createdAt,value
2022-11-26T00:02:24.879Z,99.90
2022-11-26T00:04:53.118Z,99.90
2022-11-26T00:07:25.976Z,99.90
2022-11-26T00:09:54.532Z,99.90
2022-11-26T00:12:29.342Z,99.90
2022-11-26T00:14:58.664Z,99.90
2022-11-26T00:17:25.453Z,99.90
2022-11-26T00:19:52.252Z,99.90
2022-11-26T00:22:27.255Z,99.90
2022-11-26T00:24:54.884Z,99.90
2022-11-26T00:27:25.557Z,99.90
2022-11-26T00:29:53.238Z,99.90
2022-11-26T00:32:25.911Z,99.90
2022-11-26T00:34:53.868Z,99.90
2022-11-26T00:37:29.393Z,99.90
2022-11-26T00:39:57.306Z,99.90
2022-11-26T00:42:24.609Z,99.90
2022-11-26T00:44:51.437Z,99.90
2022-11-26T00:47:18.256Z,99.90
2022-11-26T00:49:45.045Z,99.90
2022-11-26T00:52:35.455Z,99.90
2022-11-26T00:55:19.550Z,99.90
2022-11-26T00:57:46.514Z,99.90
2022-11-26T01:00:26.685Z,99.90
2022-11-26T01:02:54.566Z,99.90
2022-11-26T01:05:25.014Z,99.90
2022-11-26T01:07:53.613Z,99.90
2022-11-26T01:10:25.197Z,99.90
2022-11-26T01:12:53.646Z,99.90
2022-11-26T01:15:23.975Z,99.90
2022-11-26T01:17:52.607Z,99.90
2022-11-26T01:20:27.055Z,99.90
2022-11-26T01:22:55.691Z,99.90
2022-11-26T01:25:24.288Z,99.90
2022-11-26T01:27:51.713Z,99.90
2022-11-26T01:30:26.575Z,99.90
2022-11-26T01:32:53.754Z,99.90
2022-11-26T01:35:21.860Z,99.90
2022-11-26T01:37:49.945Z,99.90
2022-11-26T01:40:25.454Z,99.90
2022-11-26T01:43:09.967Z,99.90
2022-11-26T01:45:36.877Z,99.90
2022-11-26T01:48:33.737Z,99.90
2022-11-26T01:51:11.102Z,99.90
2022-11-26T01:53:50.816Z,99.90
2022-11-26T01:56:26.862Z,99.90
2022-11-26T01:59:33.285Z,99.90
2022-11-26T02:02:01.043Z,99.90
2022-11-26T02:04:44.782Z,99.90
2022-11-26T02:07:11.655Z,99.90
2022-11-26T02:09:38.969Z,99.90
2022-11-26T02:12:05.909Z,99.90
2022-11-26T02:14:37.552Z,99.90
2022-11-26T02:17:20.655Z,99.90
2022-11-26T02:20:44.410Z,99.90
2022-11-26T02:23:34.560Z,99.90
2022-11-26T02:26:23.204Z,99.90
2022-11-26T02:29:14.859Z,99.90
2022-11-26T02:31:49.231Z,99.90
2022-11-26T02:34:36.966Z,99.90
2022-11-26T02:37:15.167Z,99.90
2022-11-26T02:39:42.364Z,99.90
2022-11-26T02:42:29.383Z,99.90
2022-11-26T02:45:05.128Z,99.90
2022-11-26T02:47:34.767Z,99.90
2022-11-26T02:50:07.800Z,99.90
2022-11-26T02:52:35.088Z,99.90
2022-11-26T02:55:05.804Z,99.90
2022-11-26T02:57:39.702Z,99.90
2022-11-26T03:00:08.569Z,99.90
2022-11-26T03:02:54.655Z,99.90
2022-11-26T03:05:21.801Z,99.90
2022-11-26T03:07:52.992Z,99.90
2022-11-26T03:10:30.827Z,99.90
2022-11-26T03:12:57.820Z,99.90
2022-11-26T03:15:25.395Z,99.90
2022-11-26T03:17:52.270Z,99.90
2022-11-26T03:20:19.347Z,99.90
2022-11-26T03:22:46.140Z,99.90
2022-11-26T03:25:13.254Z,99.90
2022-11-26T03:27:40.048Z,99.90
2022-11-26T03:30:08.012Z,99.90
2022-11-26T03:32:36.153Z,99.90
2022-11-26T03:35:03.589Z,99.90
2022-11-26T03:37:30.572Z,99.90
2022-11-26T03:39:58.551Z,99.90
2022-11-26T03:42:25.599Z,99.90
2022-11-26T03:44:52.384Z,99.90
2022-11-26T03:47:19.532Z,99.90
2022-11-26T03:49:46.424Z,99.90
2022-11-26T03:52:13.200Z,99.90
2022-11-26T03:54:40.473Z,99.90
2022-11-26T03:57:07.910Z,99.90
2022-11-26T03:59:34.702Z,99.90
2022-11-26T04:02:01.720Z,99.90
2022-11-26T04:04:28.663Z,99.90
2022-11-26T04:06:55.471Z,99.90
2022-11-26T04:09:22.344Z,99.90
2022-11-26T04:11:49.190Z,99.90
2022-11-26T04:14:16.257Z,99.90
2022-11-26T04:16:43.188Z,99.90
2022-11-26T04:19:10.022Z,99.90
2022-11-26T04:21:36.899Z,99.90
2022-11-26T04:24:04.189Z,99.90
2022-11-26T04:26:31.051Z,99.90
2022-11-26T04:28:57.862Z,99.90
2022-11-26T04:31:24.769Z,99.90
2022-11-26T04:33:51.910Z,99.90
2022-11-26T04:36:18.749Z,99.90
2022-11-26T04:38:45.541Z,99.90
2022-11-26T04:41:12.310Z,99.90
2022-11-26T04:43:39.117Z,99.90
2022-11-26T04:46:06.272Z,99.90
2022-11-26T04:48:33.143Z,99.90
2022-11-26T04:51:00.097Z,99.90
2022-11-26T04:53:26.945Z,99.90
2022-11-26T04:55:53.706Z,99.90
2022-11-26T04:58:21.415Z,99.90
2022-11-26T05:00:51.297Z,99.90
2022-11-26T05:03:19.041Z,99.90
2022-11-26T05:05:47.078Z,99.90
2022-11-26T05:08:14.500Z,99.90
2022-11-26T05:10:41.544Z,99.90
2022-11-26T05:13:08.353Z,99.90
2022-11-26T05:15:35.139Z,99.90
2022-11-26T05:18:01.993Z,99.90
2022-11-26T05:20:28.771Z,99.90
2022-11-26T05:22:55.530Z,99.90
2022-11-26T05:25:22.329Z,99.90
2022-11-26T05:27:49.086Z,99.90
2022-11-26T05:30:16.203Z,99.90
2022-11-26T05:32:43.013Z,99.90
2022-11-26T05:35:09.868Z,99.90
2022-11-26T05:37:36.910Z,99.90
2022-11-26T05:40:05.447Z,99.90
2022-11-26T05:42:32.620Z,99.90
2022-11-26T05:44:59.624Z,99.90
2022-11-26T05:47:26.416Z,99.90
2022-11-26T05:49:53.426Z,99.90
2022-11-26T05:52:20.867Z,99.90
2022-11-26T05:54:47.872Z,99.90
2022-11-26T05:57:14.926Z,99.90
2022-11-26T05:59:41.901Z,99.90
2022-11-26T06:02:08.905Z,99.90
2022-11-26T06:04:35.949Z,99.90
2022-11-26T06:07:02.937Z,99.90
2022-11-26T06:09:29.744Z,99.90
2022-11-26T06:11:56.529Z,99.90
2022-11-26T06:14:23.413Z,99.90
2022-11-26T06:16:50.306Z,99.90
2022-11-26T06:19:18.305Z,99.90
2022-11-26T06:21:45.270Z,99.90
2022-11-26T06:24:12.205Z,99.90
2022-11-26T06:26:38.991Z,99.90
2022-11-26T06:29:05.770Z,99.90
2022-11-26T06:31:33.078Z,99.90
2022-11-26T06:34:00.285Z,99.90
2022-11-26T06:36:27.087Z,99.90
2022-11-26T06:38:53.850Z,99.90
2022-11-26T06:41:20.826Z,99.90
2022-11-26T06:43:47.795Z,99.90
2022-11-26T06:46:14.668Z,99.90
2022-11-26T06:48:41.568Z,99.90
2022-11-26T06:51:14.713Z,99.90
2022-11-26T06:53:41.934Z,99.90
2022-11-26T06:56:18.459Z,99.90
2022-11-26T06:58:49.894Z,99.90
2022-11-26T07:01:20.764Z,99.90
2022-11-26T07:03:47.632Z,99.90
2022-11-26T07:06:23.568Z,99.90
2022-11-26T07:08:51.968Z,99.90
2022-11-26T07:11:19.382Z,99.90
2022-11-26T07:13:46.229Z,99.90
2022-11-26T07:16:13.452Z,99.90
2022-11-26T07:18:40.548Z,99.90
2022-11-26T07:21:10.693Z,99.90
2022-11-26T07:23:40.750Z,99.90
2022-11-26T07:26:08.935Z,99.90
2022-11-26T07:28:36.294Z,99.90
2022-11-26T07:31:17.306Z,99.90
2022-11-26T07:33:45.974Z,99.90
2022-11-26T07:36:23.921Z,99.90
2022-11-26T07:38:53.795Z,99.90
2022-11-26T07:41:20.867Z,99.90
2022-11-26T07:43:48.072Z,99.90
2022-11-26T07:46:18.956Z,99.90
2022-11-26T07:48:46.194Z,99.90
2022-11-26T07:51:23.500Z,99.90
2022-11-26T07:53:51.513Z,99.90
2022-11-26T07:56:18.940Z,99.90
2022-11-26T07:58:46.475Z,99.90
2022-11-26T08:01:22.752Z,99.90
2022-11-26T08:03:51.874Z,99.90
2022-11-26T08:06:22.207Z,99.90
2022-11-26T08:08:49.503Z,99.90
2022-11-26T08:11:23.507Z,99.90
2022-11-26T08:14:01.422Z,99.90
2022-11-26T08:16:29.270Z,99.90
2022-11-26T08:19:01.970Z,99.90
2022-11-26T08:21:29.059Z,99.90
2022-11-26T08:23:56.223Z,99.90
2022-11-26T08:26:33.041Z,99.90
2022-11-26T08:29:02.020Z,99.90
2022-11-26T08:31:29.213Z,99.90
2022-11-26T08:34:00.429Z,99.90
2022-11-26T08:36:29.365Z,99.90
2022-11-26T08:38:56.963Z,99.90
2022-11-26T08:41:24.109Z,99.90
2022-11-26T08:44:06.069Z,99.90
2022-11-26T08:46:34.459Z,99.90
2022-11-26T08:49:01.222Z,99.90
2022-11-26T08:51:28.119Z,99.90
2022-11-26T08:53:54.939Z,99.90
2022-11-26T08:56:21.791Z,99.90
2022-11-26T08:58:49.026Z,99.90
2022-11-26T09:01:28.468Z,99.90
2022-11-26T09:03:58.816Z,99.90
2022-11-26T09:06:29.329Z,99.90
2022-11-26T09:09:15.009Z,99.90
2022-11-26T09:11:54.064Z,99.90
2022-11-26T09:14:24.939Z,99.90
2022-11-26T09:16:54.027Z,99.90
2022-11-26T09:19:21.187Z,99.90
2022-11-26T09:21:48.142Z,99.90
2022-11-26T09:24:16.628Z,99.90
2022-11-26T09:26:44.136Z,99.90
2022-11-26T09:29:14.771Z,99.90
2022-11-26T09:32:07.427Z,99.90
2022-11-26T09:34:30.330Z,99.90
2022-11-26T09:36:57.077Z,99.90
2022-11-26T09:39:23.882Z,99.90
2022-11-26T09:42:08.570Z,99.90
2022-11-26T09:44:46.900Z,99.90
2022-11-26T09:47:23.825Z,99.90
2022-11-26T09:49:59.924Z,99.90
2022-11-26T09:52:34.641Z,99.90
2022-11-26T09:55:27.756Z,99.90
2022-11-26T09:58:42.592Z,99.90
2022-11-26T10:01:18.079Z,99.90
2022-11-26T10:03:45.068Z,99.90
2022-11-26T10:06:26.698Z,99.90
2022-11-26T10:09:30.540Z,99.90
2022-11-26T10:12:26.035Z,99.90
2022-11-26T10:15:05.029Z,99.90
2022-11-26T10:17:49.823Z,99.90
2022-11-26T10:20:51.792Z,99.90
2022-11-26T10:23:45.566Z,99.90
2022-11-26T10:26:40.899Z,99.90
2022-11-26T10:29:23.818Z,99.90
2022-11-26T10:32:00.625Z,99.90
2022-11-26T10:34:47.724Z,99.90
2022-11-26T10:37:15.986Z,99.90
2022-11-26T10:39:43.081Z,99.90
2022-11-26T10:42:23.226Z,99.90
2022-11-26T10:44:53.282Z,99.90
2022-11-26T10:47:29.489Z,99.90
2022-11-26T10:50:45.907Z,99.90
2022-11-26T10:53:13.987Z,99.90
2022-11-26T10:55:43.132Z,99.90
2022-11-26T10:58:43.748Z,99.90
2022-11-26T11:01:14.255Z,99.90
2022-11-26T11:04:08.817Z,99.90
2022-11-26T11:06:42.481Z,99.90
2022-11-26T11:09:32.501Z,99.90
2022-11-26T11:12:11.486Z,99.90
2022-11-26T11:14:46.429Z,99.90
2022-11-26T11:17:35.497Z,99.90
2022-11-26T11:20:27.642Z,99.90
2022-11-26T11:23:06.809Z,99.90
2022-11-26T11:25:36.615Z,99.90
2022-11-26T11:28:16.808Z,99.90
2022-11-26T11:30:45.219Z,99.90
2022-11-26T11:33:27.702Z,99.90
2022-11-26T11:36:00.498Z,99.90
2022-11-26T11:38:31.365Z,99.90
2022-11-26T11:41:00.114Z,99.90
2022-11-26T11:43:27.660Z,99.90
2022-11-26T11:46:33.413Z,99.90
2022-11-26T11:49:30.049Z,99.90
2022-11-26T11:52:24.512Z,99.90
2022-11-26T11:55:00.051Z,99.90
2022-11-26T11:57:54.055Z,99.90
2022-11-26T12:12:33.551Z,99.90
2022-11-26T12:15:10.514Z,99.90
2022-11-26T12:17:52.959Z,99.90
2022-11-26T12:20:31.796Z,99.90
2022-11-26T12:23:38.431Z,99.90
2022-11-26T12:30:18.292Z,99.90
2022-11-26T12:35:54.393Z,99.90
2022-11-26T12:38:44.033Z,96.50
2022-11-26T12:41:29.571Z,95.90
2022-11-26T12:44:29.711Z,94.20
2022-11-26T12:47:34.964Z,94.80
2022-11-26T12:50:29.194Z,95.00
2022-11-26T12:53:22.024Z,95.60
2022-11-26T12:56:16.680Z,96.50
2022-11-26T12:59:00.863Z,96.70
2022-11-26T13:01:28.902Z,97.30
2022-11-26T13:04:21.594Z,97.60
2022-11-26T13:06:52.976Z,97.60
2022-11-26T13:09:48.422Z,98.50
2022-11-26T13:12:39.724Z,99.10
2022-11-26T13:15:29.366Z,99.60
2022-11-26T13:17:59.080Z,99.90
2022-11-26T13:21:08.841Z,99.90
2022-11-26T13:24:18.694Z,99.90
2022-11-26T13:27:10.231Z,99.90
2022-11-26T13:30:05.617Z,99.90
2022-11-26T13:33:15.811Z,99.90
2022-11-26T13:36:10.134Z,99.90
2022-11-26T13:39:01.279Z,99.90
2022-11-26T13:41:52.266Z,99.90
2022-11-26T13:45:00.661Z,99.90
2022-11-26T13:47:56.797Z,99.90
2022-11-26T13:50:34.239Z,99.90
2022-11-26T13:53:16.888Z,99.90
2022-11-26T13:55:55.606Z,99.90
2022-11-26T13:58:40.991Z,99.90
2022-11-26T14:01:40.377Z,99.90
2022-11-26T14:04:14.858Z,99.90
2022-11-26T14:07:03.437Z,99.90
2022-11-26T14:09:42.488Z,99.90
2022-11-26T14:13:03.054Z,99.90
2022-11-26T14:15:42.050Z,99.90
2022-11-26T14:18:14.257Z,99.90
2022-11-26T14:21:02.237Z,99.90
2022-11-26T14:23:48.453Z,99.90
2022-11-26T14:26:34.519Z,99.90
2022-11-26T14:29:11.310Z,99.90
2022-11-26T14:31:46.015Z,99.90
2022-11-26T14:34:19.829Z,99.90
2022-11-26T14:37:01.732Z,99.90
2022-11-26T14:39:29.499Z,99.90
2022-11-26T14:42:05.260Z,99.90
2022-11-26T14:44:33.245Z,99.90
2022-11-26T14:47:09.421Z,99.90
2022-11-26T14:49:49.278Z,99.90
2022-11-26T14:52:30.661Z,99.90
2022-11-26T14:55:01.609Z,99.90
2022-11-26T14:57:49.825Z,99.90
2022-11-26T15:00:16.610Z,99.90
2022-11-26T15:02:48.350Z,99.90
2022-11-26T15:05:18.765Z,99.90
2022-11-26T15:07:54.599Z,99.90
2022-11-26T15:10:22.152Z,99.90
2022-11-26T15:12:51.794Z,99.90
2022-11-26T15:15:24.055Z,99.90
2022-11-26T15:18:00.734Z,99.90
2022-11-26T15:20:28.048Z,99.90
2022-11-26T15:23:01.937Z,99.90
2022-11-26T15:25:33.290Z,99.90
2022-11-26T15:28:06.050Z,99.90
2022-11-26T15:30:36.787Z,99.90
2022-11-26T15:33:10.808Z,99.90
2022-11-26T15:35:39.881Z,99.90
2022-11-26T15:38:20.753Z,99.90
2022-11-26T15:40:57.738Z,99.90
2022-11-26T15:43:44.051Z,99.90
2022-11-26T15:46:13.739Z,99.90
2022-11-26T15:48:58.533Z,99.90
2022-11-26T15:51:37.381Z,99.90
2022-11-26T15:54:22.984Z,99.90
2022-11-26T15:59:06.201Z,99.90
2022-11-26T16:02:16.378Z,99.90
2022-11-26T16:04:55.120Z,99.90
2022-11-26T16:07:30.212Z,99.90
2022-11-26T16:10:23.111Z,99.90
2022-11-26T16:13:11.365Z,99.90
2022-11-26T16:16:09.658Z,99.90
2022-11-26T16:19:04.286Z,99.90
2022-11-26T16:21:34.155Z,99.90
2022-11-26T16:24:18.366Z,99.90
2022-11-26T16:27:01.598Z,99.90
2022-11-26T16:29:29.860Z,99.90
2022-11-26T16:31:56.892Z,99.90
2022-11-26T16:34:27.062Z,99.90
2022-11-26T16:37:03.651Z,99.90
2022-11-26T16:39:37.564Z,99.90
2022-11-26T16:42:19.421Z,99.90
2022-11-26T16:44:46.315Z,99.90
2022-11-26T16:47:31.789Z,99.90
2022-11-26T16:49:58.539Z,99.90
2022-11-26T16:52:25.443Z,99.90
2022-11-26T16:54:52.669Z,99.90
2022-11-26T16:57:24.149Z,99.90
2022-11-26T17:00:01.623Z,99.90
2022-11-26T17:02:28.527Z,99.90
2022-11-26T17:04:55.347Z,99.90
2022-11-26T17:07:38.528Z,99.90
2022-11-26T17:10:06.512Z,99.90
2022-11-26T17:12:33.326Z,99.90
2022-11-26T17:15:00.291Z,99.90
2022-11-26T17:17:30.626Z,99.90
2022-11-26T17:19:57.456Z,99.90
2022-11-26T17:22:25.158Z,99.90
2022-11-26T17:24:52.054Z,99.90
2022-11-26T17:27:21.188Z,99.90
2022-11-26T17:29:49.887Z,99.90
2022-11-26T17:32:19.862Z,99.90
2022-11-26T17:34:47.335Z,99.90
2022-11-26T17:37:27.372Z,99.90
2022-11-26T17:39:55.547Z,99.90
2022-11-26T17:42:23.873Z,99.90
2022-11-26T17:44:51.993Z,99.90
2022-11-26T17:47:22.428Z,99.90
2022-11-26T17:49:49.835Z,99.90
2022-11-26T17:52:17.691Z,99.90
2022-11-26T17:54:45.710Z,99.90
2022-11-26T17:57:17.498Z,99.90
2022-11-26T17:59:44.956Z,99.90
2022-11-26T18:02:12.116Z,99.90
2022-11-26T18:04:39.901Z,99.90
2022-11-26T18:07:14.340Z,99.90
2022-11-26T18:09:43.814Z,99.90
2022-11-26T18:12:26.363Z,99.90
2022-11-26T18:14:54.216Z,99.90
2022-11-26T18:17:23.046Z,99.90
2022-11-26T18:19:50.385Z,99.90
2022-11-26T18:22:23.451Z,99.90
2022-11-26T18:24:56.800Z,99.90
2022-11-26T18:27:27.641Z,99.90
2022-11-26T18:29:54.790Z,99.90
2022-11-26T18:32:22.104Z,99.90
2022-11-26T18:34:50.579Z,99.90
2022-11-26T18:37:18.525Z,99.90
2022-11-26T18:39:45.486Z,99.90
2022-11-26T18:45:01.899Z,99.90
2022-11-26T18:47:28.765Z,99.90
2022-11-26T18:49:57.369Z,99.90
2022-11-26T18:52:24.764Z,99.90
2022-11-26T18:54:51.643Z,99.90
2022-11-26T18:57:18.566Z,99.90
2022-11-26T18:59:46.711Z,99.90
2022-11-26T19:02:15.628Z,99.90
2022-11-26T19:04:44.526Z,99.90
2022-11-26T19:07:12.656Z,99.90
2022-11-26T19:09:39.929Z,99.90
2022-11-26T19:12:07.137Z,99.90
2022-11-26T19:14:34.050Z,99.90
2022-11-26T19:17:01.019Z,99.90
2022-11-26T19:19:28.262Z,99.90
2022-11-26T19:22:00.989Z,99.90
2022-11-26T19:24:29.294Z,99.90
2022-11-26T19:26:56.411Z,99.90
2022-11-26T19:29:23.247Z,99.90
2022-11-26T19:31:50.483Z,99.90
2022-11-26T19:34:17.825Z,99.90
2022-11-26T19:36:48.862Z,99.90
2022-11-26T19:39:17.052Z,99.90
2022-11-26T19:41:44.643Z,99.90
2022-11-26T19:44:11.808Z,99.90
2022-11-26T19:46:41.070Z,99.90
2022-11-26T19:49:11.812Z,99.90
2022-11-26T19:51:39.034Z,99.90
2022-11-26T19:54:06.752Z,99.90
2022-11-26T19:56:34.628Z,99.90
2022-11-26T19:59:02.303Z,99.90
2022-11-26T20:01:32.533Z,99.90
2022-11-26T20:04:02.924Z,99.90
2022-11-26T20:06:31.755Z,99.90
2022-11-26T20:08:59.163Z,99.90
2022-11-26T20:11:27.935Z,99.90
2022-11-26T20:13:56.043Z,99.90
2022-11-26T20:16:28.852Z,99.90
2022-11-26T20:18:56.845Z,99.90
2022-11-26T20:21:32.174Z,99.90
2022-11-26T20:24:02.887Z,99.90
2022-11-26T20:26:37.168Z,99.90
2022-11-26T20:29:08.519Z,99.90
2022-11-26T20:31:39.457Z,99.90
2022-11-26T20:34:06.230Z,99.90
2022-11-26T20:36:33.050Z,99.90
2022-11-26T20:39:02.155Z,99.90
2022-11-26T20:41:29.865Z,99.90
2022-11-26T20:43:59.407Z,99.90
2022-11-26T20:46:28.011Z,99.90
2022-11-26T20:48:55.433Z,99.90
2022-11-26T20:51:23.081Z,99.90
2022-11-26T20:53:51.924Z,99.90
2022-11-26T20:56:21.082Z,99.90
2022-11-26T20:58:49.076Z,99.90
2022-11-26T21:01:25.842Z,99.90
2022-11-26T21:03:53.329Z,99.90
2022-11-26T21:06:29.650Z,99.90
2022-11-26T21:09:01.050Z,99.90
2022-11-26T21:11:28.999Z,99.90
2022-11-26T21:13:57.576Z,99.90
2022-11-26T21:16:24.443Z,99.90
2022-11-26T21:18:54.518Z,99.90
2022-11-26T21:21:22.562Z,99.90
2022-11-26T21:23:49.694Z,99.90
2022-11-26T21:26:20.869Z,99.90
2022-11-26T21:29:08.248Z,99.90
2022-11-26T21:31:36.365Z,99.90
2022-11-26T21:34:06.460Z,99.90
2022-11-26T21:36:36.077Z,99.90
2022-11-26T21:39:04.546Z,99.90
2022-11-26T21:41:33.518Z,99.90
2022-11-26T21:44:03.538Z,99.90
2022-11-26T21:46:37.598Z,99.90
2022-11-26T21:49:06.341Z,99.90
2022-11-26T21:51:33.168Z,99.90
2022-11-26T21:54:00.011Z,99.90
2022-11-26T21:56:30.104Z,99.90
2022-11-26T21:58:59.590Z,99.90
2022-11-26T22:01:37.917Z,99.90
2022-11-26T22:04:16.196Z,99.90
2022-11-26T22:06:45.018Z,99.90
2022-11-26T22:09:13.144Z,99.90
2022-11-26T22:11:42.643Z,99.90
2022-11-26T22:14:13.559Z,99.90
2022-11-26T22:16:40.379Z,99.90
2022-11-26T22:19:08.040Z,99.90
2022-11-26T22:21:40.868Z,99.90
2022-11-26T22:24:13.244Z,99.90
2022-11-26T22:26:40.031Z,99.90
2022-11-26T22:29:07.547Z,99.90
2022-11-26T22:31:37.737Z,99.90
2022-11-26T22:34:13.012Z,99.90
2022-11-26T22:36:41.338Z,99.90
2022-11-26T22:41:41.774Z,99.90
2022-11-26T22:44:09.558Z,99.90
2022-11-26T22:46:38.330Z,99.90
2022-11-26T22:49:06.314Z,99.90
2022-11-26T22:51:34.929Z,99.90
2022-11-26T22:54:07.042Z,99.90
2022-11-26T22:56:37.758Z,99.90
2022-11-26T22:59:07.255Z,99.90
2022-11-26T23:01:36.473Z,99.90
2022-11-26T23:04:11.539Z,99.90
2022-11-26T23:06:39.747Z,99.90
2022-11-26T23:09:08.318Z,99.90
2022-11-26T23:11:40.439Z,99.90
2022-11-26T23:14:09.403Z,99.90
2022-11-26T23:16:40.846Z,99.90
2022-11-26T23:19:08.014Z,99.90
2022-11-26T23:21:40.275Z,99.90
2022-11-26T23:24:07.760Z,99.90
2022-11-26T23:26:37.430Z,99.90
2022-11-26T23:29:05.434Z,99.90
2022-11-26T23:31:36.247Z,99.90
2022-11-26T23:34:04.343Z,99.90
2022-11-26T23:36:32.376Z,99.90
2022-11-26T23:39:01.339Z,99.90
2022-11-26T23:41:29.125Z,99.90
2022-11-26T23:43:56.098Z,99.90
2022-11-26T23:46:26.850Z,99.90
2022-11-26T23:48:54.737Z,99.90
2022-11-26T23:51:25.449Z,99.90
2022-11-26T23:53:53.612Z,99.90
2022-11-26T23:56:30.411Z,99.90
2022-11-26T23:59:01.792Z,99.90
